sensor_id;sensor_type;location;lat;lon;timestamp;pressure;altitude;pressure_sealevel;temperature;humidity
74474;BME280;62922;-6.168;106.796;2023-07-30T00:02:21;101203.78;;;30.67;53.37
74474;BME280;62922;-6.168;106.796;2023-07-30T00:04:47;101223.56;;;30.76;53.83
74474;BME280;62922;-6.168;106.796;2023-07-30T00:07:14;101191.94;;;30.57;54.60
74474;BME280;62922;-6.168;106.796;2023-07-30T00:09:41;101208.13;;;30.74;54.29
74474;BME280;62922;-6.168;106.796;2023-07-30T00:12:10;101209.63;;;30.71;54.98
74474;BME280;62922;-6.168;106.796;2023-07-30T00:14:38;101224.72;;;30.75;54.58
74474;BME280;62922;-6.168;106.796;2023-07-30T00:17:05;101225.53;;;30.76;54.77
74474;BME280;62922;-6.168;106.796;2023-07-30T00:19:31;101226.13;;;30.64;54.85
74474;BME280;62922;-6.168;106.796;2023-07-30T00:21:58;101223.72;;;30.71;54.94
74474;BME280;62922;-6.168;106.796;2023-07-30T00:24:24;101225.19;;;30.68;54.81
74474;BME280;62922;-6.168;106.796;2023-07-30T00:26:50;101226.81;;;30.69;55.46
74474;BME280;62922;-6.168;106.796;2023-07-30T00:29:17;101222.69;;;30.67;55.41
74474;BME280;62922;-6.168;106.796;2023-07-30T00:31:43;101235.69;;;30.77;55.42
74474;BME280;62922;-6.168;106.796;2023-07-30T00:34:10;101200.06;;;30.58;55.56
74474;BME280;62922;-6.168;106.796;2023-07-30T00:36:39;101237.31;;;30.78;55.35
74474;BME280;62922;-6.168;106.796;2023-07-30T00:39:05;101253.59;;;30.81;55.57
74474;BME280;62922;-6.168;106.796;2023-07-30T00:41:31;101244.94;;;30.77;55.78
74474;BME280;62922;-6.168;106.796;2023-07-30T00:43:58;101257.78;;;30.83;55.68
74474;BME280;62922;-6.168;106.796;2023-07-30T00:46:26;101234.47;;;30.69;55.51
74474;BME280;62922;-6.168;106.796;2023-07-30T00:48:53;101212.00;;;30.55;55.47
74474;BME280;62922;-6.168;106.796;2023-07-30T00:51:19;101258.28;;;30.85;55.30
74474;BME280;62922;-6.168;106.796;2023-07-30T00:53:46;101223.97;;;30.61;54.84
74474;BME280;62922;-6.168;106.796;2023-07-30T00:56:13;101258.41;;;30.80;55.58
74474;BME280;62922;-6.168;106.796;2023-07-30T00:58:40;101256.63;;;30.84;55.16
74474;BME280;62922;-6.168;106.796;2023-07-30T01:01:07;101207.53;;;30.54;55.29
74474;BME280;62922;-6.168;106.796;2023-07-30T01:03:34;101242.97;;;30.78;55.64
74474;BME280;62922;-6.168;106.796;2023-07-30T01:06:01;101259.75;;;30.83;54.85
74474;BME280;62922;-6.168;106.796;2023-07-30T01:08:27;101249.44;;;30.78;54.99
74474;BME280;62922;-6.168;106.796;2023-07-30T01:10:54;101250.06;;;30.75;55.09
74474;BME280;62922;-6.168;106.796;2023-07-30T01:13:21;101266.03;;;30.80;55.48
74474;BME280;62922;-6.168;106.796;2023-07-30T01:15:48;101243.91;;;30.73;55.58
74474;BME280;62922;-6.168;106.796;2023-07-30T01:18:15;101220.31;;;30.60;55.41
74474;BME280;62922;-6.168;106.796;2023-07-30T01:20:44;101241.09;;;30.73;55.58
74474;BME280;62922;-6.168;106.796;2023-07-30T01:23:10;101259.13;;;30.86;55.21
74474;BME280;62922;-6.168;106.796;2023-07-30T01:25:37;101240.97;;;30.78;55.30
74474;BME280;62922;-6.168;106.796;2023-07-30T01:28:05;101259.31;;;30.89;55.36
74474;BME280;62922;-6.168;106.796;2023-07-30T01:30:38;101249.34;;;30.83;55.60
74474;BME280;62922;-6.168;106.796;2023-07-30T01:33:10;101247.34;;;30.84;55.39
74474;BME280;62922;-6.168;106.796;2023-07-30T01:35:38;101252.84;;;30.89;55.46
74474;BME280;62922;-6.168;106.796;2023-07-30T01:38:04;101252.34;;;30.87;55.70
74474;BME280;62922;-6.168;106.796;2023-07-30T01:40:32;101256.31;;;30.86;55.42
74474;BME280;62922;-6.168;106.796;2023-07-30T01:42:59;101238.06;;;30.83;55.51
74474;BME280;62922;-6.168;106.796;2023-07-30T01:45:28;101194.78;;;30.57;55.79
74474;BME280;62922;-6.168;106.796;2023-07-30T01:47:57;101215.03;;;30.67;55.52
74474;BME280;62922;-6.168;106.796;2023-07-30T01:50:23;101256.03;;;30.96;55.44
74474;BME280;62922;-6.168;106.796;2023-07-30T01:52:50;101249.88;;;30.94;55.61
74474;BME280;62922;-6.168;106.796;2023-07-30T01:55:16;101243.91;;;30.95;55.48
74474;BME280;62922;-6.168;106.796;2023-07-30T01:57:42;101225.94;;;30.83;55.21
74474;BME280;62922;-6.168;106.796;2023-07-30T02:00:09;101200.16;;;30.67;55.32
74474;BME280;62922;-6.168;106.796;2023-07-30T02:02:38;101213.03;;;30.82;55.29
74474;BME280;62922;-6.168;106.796;2023-07-30T02:05:05;101229.13;;;30.90;54.98
74474;BME280;62922;-6.168;106.796;2023-07-30T02:07:31;101238.78;;;30.97;55.01
74474;BME280;62922;-6.168;106.796;2023-07-30T02:09:58;101218.13;;;30.80;55.84
74474;BME280;62922;-6.168;106.796;2023-07-30T02:12:24;101221.19;;;30.92;55.27
74474;BME280;62922;-6.168;106.796;2023-07-30T02:14:50;101232.34;;;30.97;55.50
74474;BME280;62922;-6.168;106.796;2023-07-30T02:17:17;101231.69;;;31.00;54.88
74474;BME280;62922;-6.168;106.796;2023-07-30T02:19:45;101238.84;;;31.06;55.22
74474;BME280;62922;-6.168;106.796;2023-07-30T02:22:12;101224.88;;;31.01;55.72
74474;BME280;62922;-6.168;106.796;2023-07-30T02:24:38;101219.75;;;31.03;55.41
74474;BME280;62922;-6.168;106.796;2023-07-30T02:27:04;101222.75;;;31.06;55.13
74474;BME280;62922;-6.168;106.796;2023-07-30T02:29:31;101168.31;;;30.66;55.05
74474;BME280;62922;-6.168;106.796;2023-07-30T02:32:00;101210.16;;;31.04;55.10
74474;BME280;62922;-6.168;106.796;2023-07-30T02:34:29;101226.59;;;31.10;55.08
74474;BME280;62922;-6.168;106.796;2023-07-30T02:36:55;101217.69;;;31.17;54.24
74474;BME280;62922;-6.168;106.796;2023-07-30T02:39:21;101202.56;;;31.13;54.09
74474;BME280;62922;-6.168;106.796;2023-07-30T02:41:48;101215.22;;;31.24;53.88
74474;BME280;62922;-6.168;106.796;2023-07-30T02:44:14;101208.41;;;31.25;54.42
74474;BME280;62922;-6.168;106.796;2023-07-30T02:46:43;101132.16;;;30.82;54.35
74474;BME280;62922;-6.168;106.796;2023-07-30T02:49:09;101212.25;;;31.29;53.75
74474;BME280;62922;-6.168;106.796;2023-07-30T02:51:35;101142.78;;;30.94;53.32
74474;BME280;62922;-6.168;106.796;2023-07-30T02:54:04;101193.97;;;31.26;52.34
74474;BME280;62922;-6.168;106.796;2023-07-30T02:56:31;101203.84;;;31.37;52.36
74474;BME280;62922;-6.168;106.796;2023-07-30T02:58:59;101192.34;;;31.34;51.31
74474;BME280;62922;-6.168;106.796;2023-07-30T03:01:25;101212.34;;;31.46;50.96
74474;BME280;62922;-6.168;106.796;2023-07-30T03:03:52;101144.56;;;31.20;51.62
74474;BME280;62922;-6.168;106.796;2023-07-30T03:06:18;101188.44;;;31.43;51.16
74474;BME280;62922;-6.168;106.796;2023-07-30T03:08:44;101186.97;;;31.46;51.19
74474;BME280;62922;-6.168;106.796;2023-07-30T03:11:10;101188.16;;;31.53;50.75
74474;BME280;62922;-6.168;106.796;2023-07-30T03:13:38;101109.38;;;31.09;50.78
74474;BME280;62922;-6.168;106.796;2023-07-30T03:16:05;101177.34;;;31.55;50.31
74474;BME280;62922;-6.168;106.796;2023-07-30T03:18:31;101161.59;;;31.54;49.82
74474;BME280;62922;-6.168;106.796;2023-07-30T03:20:59;101156.44;;;31.56;50.05
74474;BME280;62922;-6.168;106.796;2023-07-30T03:23:26;101172.22;;;31.66;50.18
74474;BME280;62922;-6.168;106.796;2023-07-30T03:25:53;101160.28;;;31.69;49.48
74474;BME280;62922;-6.168;106.796;2023-07-30T03:28:19;101153.97;;;31.72;49.28
74474;BME280;62922;-6.168;106.796;2023-07-30T03:30:45;101141.03;;;31.71;49.42
74474;BME280;62922;-6.168;106.796;2023-07-30T03:33:11;101128.56;;;31.72;49.49
74474;BME280;62922;-6.168;106.796;2023-07-30T03:35:38;101139.03;;;31.89;48.99
74474;BME280;62922;-6.168;106.796;2023-07-30T03:38:04;101098.03;;;31.66;48.63
74474;BME280;62922;-6.168;106.796;2023-07-30T03:40:33;101119.09;;;31.85;48.46
74474;BME280;62922;-6.168;106.796;2023-07-30T03:42:59;101089.06;;;31.72;48.12
74474;BME280;62922;-6.168;106.796;2023-07-30T03:45:25;101109.50;;;31.86;48.70
74474;BME280;62922;-6.168;106.796;2023-07-30T03:47:51;101079.28;;;31.78;47.85
74474;BME280;62922;-6.168;106.796;2023-07-30T03:50:18;101072.63;;;31.74;47.11
74474;BME280;62922;-6.168;106.796;2023-07-30T03:52:44;101107.84;;;32.02;46.73
74474;BME280;62922;-6.168;106.796;2023-07-30T03:55:10;101112.97;;;32.09;46.64
74474;BME280;62922;-6.168;106.796;2023-07-30T03:57:36;101106.19;;;32.10;47.36
74474;BME280;62922;-6.168;106.796;2023-07-30T04:00:04;101098.06;;;32.08;47.48
74474;BME280;62922;-6.168;106.796;2023-07-30T04:02:31;101112.34;;;32.12;47.51
74474;BME280;62922;-6.168;106.796;2023-07-30T04:04:57;101056.38;;;31.88;47.25
74474;BME280;62922;-6.168;106.796;2023-07-30T04:07:23;101086.09;;;32.11;47.32
74474;BME280;62922;-6.168;106.796;2023-07-30T04:09:50;101064.03;;;32.05;47.43
74474;BME280;62922;-6.168;106.796;2023-07-30T04:12:16;101083.88;;;32.25;47.01
74474;BME280;62922;-6.168;106.796;2023-07-30T04:14:43;101025.34;;;31.97;46.57
74474;BME280;62922;-6.168;106.796;2023-07-30T04:17:09;101055.53;;;32.13;46.37
74474;BME280;62922;-6.168;106.796;2023-07-30T04:19:36;101072.25;;;32.35;45.59
74474;BME280;62922;-6.168;106.796;2023-07-30T04:22:02;101050.97;;;32.29;45.54
74474;BME280;62922;-6.168;106.796;2023-07-30T04:24:28;101065.25;;;32.41;45.72
74474;BME280;62922;-6.168;106.796;2023-07-30T04:26:55;101042.31;;;32.34;46.09
74474;BME280;62922;-6.168;106.796;2023-07-30T04:29:21;101020.94;;;32.25;45.01
74474;BME280;62922;-6.168;106.796;2023-07-30T04:31:47;101012.63;;;32.28;45.61
74474;BME280;62922;-6.168;106.796;2023-07-30T04:34:14;101040.31;;;32.43;45.99
74474;BME280;62922;-6.168;106.796;2023-07-30T04:36:40;101039.31;;;32.48;46.58
74474;BME280;62922;-6.168;106.796;2023-07-30T04:39:07;101017.59;;;32.31;45.93
74474;BME280;62922;-6.168;106.796;2023-07-30T04:41:33;101018.72;;;32.47;46.40
74474;BME280;62922;-6.168;106.796;2023-07-30T04:43:59;101025.50;;;32.55;44.84
74474;BME280;62922;-6.168;106.796;2023-07-30T04:46:26;101005.44;;;32.39;45.40
74474;BME280;62922;-6.168;106.796;2023-07-30T04:48:52;101031.63;;;32.57;45.57
74474;BME280;62922;-6.168;106.796;2023-07-30T04:51:21;101031.16;;;32.55;45.12
74474;BME280;62922;-6.168;106.796;2023-07-30T04:53:48;101028.97;;;32.61;44.96
74474;BME280;62922;-6.168;106.796;2023-07-30T04:56:14;101014.34;;;32.58;45.06
74474;BME280;62922;-6.168;106.796;2023-07-30T04:58:40;101026.63;;;32.63;45.36
74474;BME280;62922;-6.168;106.796;2023-07-30T05:01:07;101008.34;;;32.60;45.44
74474;BME280;62922;-6.168;106.796;2023-07-30T05:03:33;100930.75;;;32.20;44.68
74474;BME280;62922;-6.168;106.796;2023-07-30T05:05:59;100991.59;;;32.55;44.27
74474;BME280;62922;-6.168;106.796;2023-07-30T05:08:28;101000.84;;;32.64;44.68
74474;BME280;62922;-6.168;106.796;2023-07-30T05:10:54;100984.25;;;32.63;45.11
74474;BME280;62922;-6.168;106.796;2023-07-30T05:13:21;100982.59;;;32.62;45.14
74474;BME280;62922;-6.168;106.796;2023-07-30T05:15:47;100984.72;;;32.65;44.81
74474;BME280;62922;-6.168;106.796;2023-07-30T05:18:13;100961.16;;;32.61;44.56
74474;BME280;62922;-6.168;106.796;2023-07-30T05:20:40;100976.88;;;32.70;44.88
74474;BME280;62922;-6.168;106.796;2023-07-30T05:23:06;100934.81;;;32.48;44.65
74474;BME280;62922;-6.168;106.796;2023-07-30T05:25:32;100969.88;;;32.76;44.37
74474;BME280;62922;-6.168;106.796;2023-07-30T05:27:59;100959.78;;;32.67;45.29
74474;BME280;62922;-6.168;106.796;2023-07-30T05:30:25;100957.25;;;32.74;45.41
74474;BME280;62922;-6.168;106.796;2023-07-30T05:32:57;100962.56;;;32.75;45.22
74474;BME280;62922;-6.168;106.796;2023-07-30T05:35:24;100955.25;;;32.74;45.70
74474;BME280;62922;-6.168;106.796;2023-07-30T05:37:50;100950.47;;;32.66;45.78
74474;BME280;62922;-6.168;106.796;2023-07-30T05:40:17;100941.00;;;32.71;46.09
74474;BME280;62922;-6.168;106.796;2023-07-30T05:42:43;100915.50;;;32.50;46.17
74474;BME280;62922;-6.168;106.796;2023-07-30T05:45:10;100920.88;;;32.64;45.68
74474;BME280;62922;-6.168;106.796;2023-07-30T05:47:36;100899.75;;;32.40;47.87
74474;BME280;62922;-6.168;106.796;2023-07-30T05:50:05;100941.38;;;32.61;48.08
74474;BME280;62922;-6.168;106.796;2023-07-30T05:52:32;100894.00;;;32.28;48.15
74474;BME280;62922;-6.168;106.796;2023-07-30T05:54:58;100906.25;;;32.32;48.50
74474;BME280;62922;-6.168;106.796;2023-07-30T05:57:25;100926.53;;;32.43;49.05
74474;BME280;62922;-6.168;106.796;2023-07-30T05:59:51;100927.50;;;32.47;48.16
74474;BME280;62922;-6.168;106.796;2023-07-30T06:02:18;100915.06;;;32.39;48.93
74474;BME280;62922;-6.168;106.796;2023-07-30T06:04:44;100916.69;;;32.40;49.07
74474;BME280;62922;-6.168;106.796;2023-07-30T06:07:11;100918.19;;;32.46;48.36
74474;BME280;62922;-6.168;106.796;2023-07-30T06:09:37;100908.34;;;32.52;48.70
74474;BME280;62922;-6.168;106.796;2023-07-30T06:12:03;100912.47;;;32.55;49.31
74474;BME280;62922;-6.168;106.796;2023-07-30T06:14:29;100874.25;;;32.28;49.72
74474;BME280;62922;-6.168;106.796;2023-07-30T06:16:56;100907.88;;;32.50;49.86
74474;BME280;62922;-6.168;106.796;2023-07-30T06:19:22;100894.06;;;32.49;50.02
74474;BME280;62922;-6.168;106.796;2023-07-30T06:21:49;100905.72;;;32.47;50.78
74474;BME280;62922;-6.168;106.796;2023-07-30T06:24:15;100904.50;;;32.57;50.43
74474;BME280;62922;-6.168;106.796;2023-07-30T06:26:41;100886.44;;;32.49;50.65
74474;BME280;62922;-6.168;106.796;2023-07-30T06:29:07;100877.66;;;32.42;51.38
74474;BME280;62922;-6.168;106.796;2023-07-30T06:31:34;100887.78;;;32.43;51.20
74474;BME280;62922;-6.168;106.796;2023-07-30T06:34:00;100885.94;;;32.47;51.08
74474;BME280;62922;-6.168;106.796;2023-07-30T06:36:27;100876.84;;;32.42;50.67
74474;BME280;62922;-6.168;106.796;2023-07-30T06:38:53;100888.09;;;32.50;50.92
74474;BME280;62922;-6.168;106.796;2023-07-30T06:41:22;100859.22;;;32.45;50.91
74474;BME280;62922;-6.168;106.796;2023-07-30T06:43:48;100863.97;;;32.53;50.07
74474;BME280;62922;-6.168;106.796;2023-07-30T06:46:17;100860.31;;;32.52;50.30
74474;BME280;62922;-6.168;106.796;2023-07-30T06:48:43;100865.63;;;32.54;49.47
74474;BME280;62922;-6.168;106.796;2023-07-30T06:51:10;100871.44;;;32.58;49.22
74474;BME280;62922;-6.168;106.796;2023-07-30T06:53:38;100864.25;;;32.60;49.30
74474;BME280;62922;-6.168;106.796;2023-07-30T06:56:05;100813.19;;;32.44;48.83
74474;BME280;62922;-6.168;106.796;2023-07-30T06:58:31;100826.75;;;32.51;48.41
74474;BME280;62922;-6.168;106.796;2023-07-30T07:00:57;100835.66;;;32.62;48.79
74474;BME280;62922;-6.168;106.796;2023-07-30T07:03:23;100845.44;;;32.64;48.93
74474;BME280;62922;-6.168;106.796;2023-07-30T07:06:01;100852.28;;;32.63;48.88
74474;BME280;62922;-6.168;106.796;2023-07-30T07:08:27;100843.97;;;32.58;48.90
74474;BME280;62922;-6.168;106.796;2023-07-30T07:10:54;100839.44;;;32.66;49.10
74474;BME280;62922;-6.168;106.796;2023-07-30T07:13:20;100827.19;;;32.62;47.94
74474;BME280;62922;-6.168;106.796;2023-07-30T07:15:46;100850.34;;;32.76;48.96
74474;BME280;62922;-6.168;106.796;2023-07-30T07:18:13;100737.09;;;32.19;48.65
74474;BME280;62922;-6.168;106.796;2023-07-30T07:20:39;100820.97;;;32.68;48.05
74474;BME280;62922;-6.168;106.796;2023-07-30T07:23:06;100774.97;;;32.47;48.72
74474;BME280;62922;-6.168;106.796;2023-07-30T07:25:32;100812.63;;;32.72;48.16
74474;BME280;62922;-6.168;106.796;2023-07-30T07:27:59;100810.50;;;32.69;48.83
74474;BME280;62922;-6.168;106.796;2023-07-30T07:30:25;100805.66;;;32.69;48.95
74474;BME280;62922;-6.168;106.796;2023-07-30T07:32:52;100811.00;;;32.71;48.60
74474;BME280;62922;-6.168;106.796;2023-07-30T07:35:19;100771.78;;;32.48;48.66
74474;BME280;62922;-6.168;106.796;2023-07-30T07:37:46;100816.78;;;32.74;48.64
74474;BME280;62922;-6.168;106.796;2023-07-30T07:40:12;100810.78;;;32.76;49.19
74474;BME280;62922;-6.168;106.796;2023-07-30T07:42:39;100771.00;;;32.60;48.65
74474;BME280;62922;-6.168;106.796;2023-07-30T07:45:06;100793.69;;;32.72;48.20
74474;BME280;62922;-6.168;106.796;2023-07-30T07:47:33;100799.47;;;32.76;48.43
74474;BME280;62922;-6.168;106.796;2023-07-30T07:49:59;100782.38;;;32.72;48.32
74474;BME280;62922;-6.168;106.796;2023-07-30T07:52:25;100791.81;;;32.76;48.21
74474;BME280;62922;-6.168;106.796;2023-07-30T07:54:52;100791.13;;;32.79;47.99
74474;BME280;62922;-6.168;106.796;2023-07-30T07:57:18;100770.94;;;32.69;48.39
74474;BME280;62922;-6.168;106.796;2023-07-30T07:59:47;100801.25;;;32.80;48.49
74474;BME280;62922;-6.168;106.796;2023-07-30T08:02:14;100787.34;;;32.75;48.27
74474;BME280;62922;-6.168;106.796;2023-07-30T08:04:40;100759.56;;;32.56;48.51
74474;BME280;62922;-6.168;106.796;2023-07-30T08:07:06;100779.13;;;32.82;48.10
74474;BME280;62922;-6.168;106.796;2023-07-30T08:09:33;100780.44;;;32.85;48.06
74474;BME280;62922;-6.168;106.796;2023-07-30T08:12:00;100748.47;;;32.72;48.72
74474;BME280;62922;-6.168;106.796;2023-07-30T08:14:29;100745.78;;;32.76;48.17
74474;BME280;62922;-6.168;106.796;2023-07-30T08:16:57;100758.59;;;32.73;49.52
74474;BME280;62922;-6.168;106.796;2023-07-30T08:19:23;100752.44;;;32.71;48.33
74474;BME280;62922;-6.168;106.796;2023-07-30T08:21:49;100785.38;;;32.88;49.36
74474;BME280;62922;-6.168;106.796;2023-07-30T08:24:16;100767.25;;;32.89;48.05
74474;BME280;62922;-6.168;106.796;2023-07-30T08:26:42;100767.38;;;32.92;47.60
74474;BME280;62922;-6.168;106.796;2023-07-30T08:29:08;100772.56;;;32.90;48.78
74474;BME280;62922;-6.168;106.796;2023-07-30T08:31:36;100767.38;;;32.92;48.69
74474;BME280;62922;-6.168;106.796;2023-07-30T08:34:05;100766.72;;;32.95;48.94
74474;BME280;62922;-6.168;106.796;2023-07-30T08:36:31;100763.88;;;32.95;48.88
74474;BME280;62922;-6.168;106.796;2023-07-30T08:38:58;100759.59;;;32.89;49.05
74474;BME280;62922;-6.168;106.796;2023-07-30T08:41:24;100746.38;;;32.81;49.16
74474;BME280;62922;-6.168;106.796;2023-07-30T08:43:51;100759.47;;;32.86;49.36
74474;BME280;62922;-6.168;106.796;2023-07-30T08:46:18;100773.41;;;32.91;49.27
74474;BME280;62922;-6.168;106.796;2023-07-30T08:48:45;100758.72;;;32.77;49.70
74474;BME280;62922;-6.168;106.796;2023-07-30T08:51:14;100727.25;;;32.45;50.09
74474;BME280;62922;-6.168;106.796;2023-07-30T08:53:42;100776.84;;;32.76;49.53
74474;BME280;62922;-6.168;106.796;2023-07-30T08:56:09;100782.16;;;32.77;49.38
74474;BME280;62922;-6.168;106.796;2023-07-30T08:58:39;100755.50;;;32.66;49.78
74474;BME280;62922;-6.168;106.796;2023-07-30T09:01:09;100782.16;;;32.77;49.67
74474;BME280;62922;-6.168;106.796;2023-07-30T09:03:39;100771.06;;;32.72;50.25
74474;BME280;62922;-6.168;106.796;2023-07-30T09:06:07;100783.47;;;32.80;50.01
74474;BME280;62922;-6.168;106.796;2023-07-30T09:08:33;100778.84;;;32.75;50.49
74474;BME280;62922;-6.168;106.796;2023-07-30T09:11:10;100788.91;;;32.85;50.07
74474;BME280;62922;-6.168;106.796;2023-07-30T09:13:38;100787.19;;;32.72;49.99
74474;BME280;62922;-6.168;106.796;2023-07-30T09:16:14;100793.81;;;32.76;51.03
74474;BME280;62922;-6.168;106.796;2023-07-30T09:18:45;100800.19;;;32.73;50.43
74474;BME280;62922;-6.168;106.796;2023-07-30T09:21:13;100783.97;;;32.61;51.00
74474;BME280;62922;-6.168;106.796;2023-07-30T09:23:43;100772.06;;;32.55;49.43
74474;BME280;62922;-6.168;106.796;2023-07-30T09:26:10;100730.84;;;32.34;49.97
74474;BME280;62922;-6.168;106.796;2023-07-30T09:28:36;100809.09;;;32.75;50.00
74474;BME280;62922;-6.168;106.796;2023-07-30T09:31:04;100813.72;;;32.79;50.69
74474;BME280;62922;-6.168;106.796;2023-07-30T09:33:32;100818.16;;;32.68;50.08
74474;BME280;62922;-6.168;106.796;2023-07-30T09:36:07;100762.09;;;32.29;49.65
74474;BME280;62922;-6.168;106.796;2023-07-30T09:38:39;100837.72;;;32.73;50.68
74474;BME280;62922;-6.168;106.796;2023-07-30T09:41:06;100829.59;;;32.72;50.53
74474;BME280;62922;-6.168;106.796;2023-07-30T09:43:33;100839.88;;;32.76;50.73
74474;BME280;62922;-6.168;106.796;2023-07-30T09:46:03;100843.84;;;32.75;50.71
74474;BME280;62922;-6.168;106.796;2023-07-30T09:48:33;100851.03;;;32.73;50.12
74474;BME280;62922;-6.168;106.796;2023-07-30T09:51:01;100804.22;;;32.42;49.51
74474;BME280;62922;-6.168;106.796;2023-07-30T09:53:33;100850.59;;;32.62;49.99
74474;BME280;62922;-6.168;106.796;2023-07-30T09:56:03;100844.47;;;32.60;49.49
74474;BME280;62922;-6.168;106.796;2023-07-30T09:58:31;100843.84;;;32.54;50.21
74474;BME280;62922;-6.168;106.796;2023-07-30T10:01:00;100848.34;;;32.55;50.48
74474;BME280;62922;-6.168;106.796;2023-07-30T10:03:27;100872.22;;;32.58;50.10
74474;BME280;62922;-6.168;106.796;2023-07-30T10:05:59;100877.75;;;32.54;50.87
74474;BME280;62922;-6.168;106.796;2023-07-30T10:08:29;100879.41;;;32.55;50.70
74474;BME280;62922;-6.168;106.796;2023-07-30T10:10:58;100862.72;;;32.42;50.59
74474;BME280;62922;-6.168;106.796;2023-07-30T10:13:29;100867.84;;;32.48;50.26
74474;BME280;62922;-6.168;106.796;2023-07-30T10:15:56;100874.44;;;32.52;50.48
74474;BME280;62922;-6.168;106.796;2023-07-30T10:18:43;100877.31;;;32.44;50.25
74474;BME280;62922;-6.168;106.796;2023-07-30T10:21:11;100873.19;;;32.41;50.34
74474;BME280;62922;-6.168;106.796;2023-07-30T10:24:00;100845.22;;;32.19;50.08
74474;BME280;62922;-6.168;106.796;2023-07-30T10:26:30;100895.25;;;32.48;50.40
74474;BME280;62922;-6.168;106.796;2023-07-30T10:29:17;100895.25;;;32.48;49.84
74474;BME280;62922;-6.168;106.796;2023-07-30T10:31:54;100857.00;;;32.21;50.75
74474;BME280;62922;-6.168;106.796;2023-07-30T10:34:22;100908.34;;;32.52;50.79
74474;BME280;62922;-6.168;106.796;2023-07-30T10:36:53;100902.88;;;32.47;50.58
74474;BME280;62922;-6.168;106.796;2023-07-30T10:39:25;100894.66;;;32.34;51.10
74474;BME280;62922;-6.168;106.796;2023-07-30T10:41:56;100908.91;;;32.37;51.11
74474;BME280;62922;-6.168;106.796;2023-07-30T10:44:25;100916.69;;;32.40;51.28
74474;BME280;62922;-6.168;106.796;2023-07-30T10:46:56;100922.69;;;32.39;50.39
74474;BME280;62922;-6.168;106.796;2023-07-30T10:49:23;100918.69;;;32.40;50.72
74474;BME280;62922;-6.168;106.796;2023-07-30T10:51:53;100922.03;;;32.42;51.51
74474;BME280;62922;-6.168;106.796;2023-07-30T10:54:20;100920.22;;;32.29;50.58
74474;BME280;62922;-6.168;106.796;2023-07-30T10:56:48;100866.91;;;31.98;51.23
74474;BME280;62922;-6.168;106.796;2023-07-30T10:59:15;100929.50;;;32.38;51.92
74474;BME280;62922;-6.168;106.796;2023-07-30T11:01:44;100937.16;;;32.37;51.84
74474;BME280;62922;-6.168;106.796;2023-07-30T11:04:16;100936.66;;;32.35;51.81
74474;BME280;62922;-6.168;106.796;2023-07-30T11:06:46;100882.69;;;31.99;51.65
74474;BME280;62922;-6.168;106.796;2023-07-30T11:09:33;100948.47;;;32.29;51.55
74474;BME280;62922;-6.168;106.796;2023-07-30T11:12:02;100945.84;;;32.24;51.25
74474;BME280;62922;-6.168;106.796;2023-07-30T11:14:29;100944.22;;;32.23;51.26
74474;BME280;62922;-6.168;106.796;2023-07-30T11:16:58;100923.47;;;32.19;52.49
74474;BME280;62922;-6.168;106.796;2023-07-30T11:19:26;100949.81;;;32.31;51.96
74474;BME280;62922;-6.168;106.796;2023-07-30T11:21:54;100970.91;;;32.34;51.87
74474;BME280;62922;-6.168;106.796;2023-07-30T11:24:43;100961.78;;;32.28;52.14
74474;BME280;62922;-6.168;106.796;2023-07-30T11:27:10;100968.56;;;32.36;52.42
74474;BME280;62922;-6.168;106.796;2023-07-30T11:29:36;100974.38;;;32.39;52.15
74474;BME280;62922;-6.168;106.796;2023-07-30T11:32:02;100981.66;;;32.40;52.70
74474;BME280;62922;-6.168;106.796;2023-07-30T11:34:29;100973.72;;;32.34;52.78
74474;BME280;62922;-6.168;106.796;2023-07-30T11:36:58;100976.88;;;32.32;53.05
74474;BME280;62922;-6.168;106.796;2023-07-30T11:39:25;100944.28;;;32.06;53.16
74474;BME280;62922;-6.168;106.796;2023-07-30T11:41:51;101001.47;;;32.32;53.23
74474;BME280;62922;-6.168;106.796;2023-07-30T11:44:31;101007.13;;;32.32;52.95
74474;BME280;62922;-6.168;106.796;2023-07-30T11:46:58;100937.69;;;31.85;53.06
74474;BME280;62922;-6.168;106.796;2023-07-30T11:49:24;101014.81;;;32.23;53.68
74474;BME280;62922;-6.168;106.796;2023-07-30T11:51:51;101012.63;;;32.20;53.54
74474;BME280;62922;-6.168;106.796;2023-07-30T11:54:29;101025.25;;;32.22;53.55
74474;BME280;62922;-6.168;106.796;2023-07-30T11:56:59;101004.53;;;32.10;52.67
74474;BME280;62922;-6.168;106.796;2023-07-30T11:59:26;101015.50;;;32.11;53.33
74474;BME280;62922;-6.168;106.796;2023-07-30T12:01:53;100986.34;;;31.90;53.48
74474;BME280;62922;-6.168;106.796;2023-07-30T12:04:19;101016.19;;;32.08;53.10
74474;BME280;62922;-6.168;106.796;2023-07-30T12:06:47;101025.94;;;32.11;53.84
74474;BME280;62922;-6.168;106.796;2023-07-30T12:09:18;101031.25;;;32.12;53.75
74474;BME280;62922;-6.168;106.796;2023-07-30T12:14:18;101049.81;;;32.39;54.86
74474;BME280;62922;-6.168;106.796;2023-07-30T12:16:45;101034.72;;;32.26;54.59
74474;BME280;62922;-6.168;106.796;2023-07-30T12:19:11;101044.69;;;32.24;54.25
74474;BME280;62922;-6.168;106.796;2023-07-30T12:21:37;101065.78;;;32.26;54.34
74474;BME280;62922;-6.168;106.796;2023-07-30T12:24:04;101033.78;;;32.05;53.49
74474;BME280;62922;-6.168;106.796;2023-07-30T12:26:30;101065.47;;;32.19;53.50
74474;BME280;62922;-6.168;106.796;2023-07-30T12:28:57;101066.81;;;32.13;53.18
74474;BME280;62922;-6.168;106.796;2023-07-30T12:31:23;101017.00;;;31.83;53.75
74474;BME280;62922;-6.168;106.796;2023-07-30T12:33:49;101071.81;;;32.08;53.56
74474;BME280;62922;-6.168;106.796;2023-07-30T12:36:16;101074.78;;;32.11;53.53